Time;durP1;ratioP1;P1;durP2;ratioP2;P2;SDS_P1;SDS_P2;PMS_P1;PMS_P2;Temp;Humidity;BMP_temperature;BMP_pressure;BME280_temperature;BME280_humidity;BME280_pressure;Samples;Min_cycle;Max_cycle;Signal;HPM_P1;HPM_P2
2023/10/21 00:00:16;;;;;;;8.95;4.32;;;;;;;10.40;100.00;98214.91;5092477;28;20048;-55
2023/10/21 00:02:45;;;;;;;10.95;4.63;;;;;;;10.35;100.00;98214.56;5093704;28;20081;-55
2023/10/21 00:05:13;;;;;;;10.65;4.60;;;;;;;10.31;100.00;98214.06;5093683;28;20048;-56
2023/10/21 00:07:42;;;;;;;9.43;4.25;;;;;;;10.29;100.00;98222.09;5093608;28;20693;-55
2023/10/21 00:10:10;;;;;;;8.82;4.45;;;;;;;10.24;100.00;98220.91;5093540;28;20538;-47
2023/10/21 00:12:38;;;;;;;9.63;4.57;;;;;;;10.22;100.00;98225.53;5093114;28;20043;-49
2023/10/21 00:15:08;;;;;;;7.85;4.20;;;;;;;10.26;100.00;98227.66;5093542;28;20048;-47
2023/10/21 00:17:40;;;;;;;8.65;3.92;;;;;;;10.19;100.00;98226.66;5090504;28;20116;-49
2023/10/21 00:20:12;;;;;;;10.55;4.40;;;;;;;10.16;100.00;98237.50;5087601;28;20513;-47
2023/10/21 00:22:40;;;;;;;9.40;4.32;;;;;;;10.22;100.00;98239.47;5093474;28;20082;-46
2023/10/21 00:25:09;;;;;;;7.68;4.05;;;;;;;10.17;100.00;98233.91;5093132;28;20051;-49
2023/10/21 00:27:37;;;;;;;8.15;4.25;;;;;;;10.13;100.00;98241.28;5091494;28;20135;-46
2023/10/21 00:30:07;;;;;;;9.32;4.40;;;;;;;10.13;100.00;98241.28;5087898;28;20064;-46
2023/10/21 00:32:38;;;;;;;12.25;4.20;;;;;;;10.12;100.00;98246.69;5092523;28;20587;-56
2023/10/21 00:35:06;;;;;;;9.32;4.28;;;;;;;10.10;100.00;98243.38;5092903;28;20040;-55
2023/10/21 00:37:36;;;;;;;12.13;4.65;;;;;;;10.06;100.00;98256.03;5093214;28;20044;-56
2023/10/21 00:40:06;;;;;;;8.02;4.13;;;;;;;10.07;100.00;98262.91;5091711;28;20052;-56
2023/10/21 00:42:34;;;;;;;12.18;4.93;;;;;;;10.05;100.00;98270.13;5093009;28;20372;-56
2023/10/21 00:45:03;;;;;;;10.52;5.40;;;;;;;10.07;100.00;98276.03;5091563;28;20079;-56
2023/10/21 00:47:32;;;;;;;13.20;5.25;;;;;;;10.07;100.00;98277.84;5088146;28;20060;-47
2023/10/21 00:50:03;;;;;;;12.88;5.82;;;;;;;10.11;100.00;98279.19;5088614;28;20051;-55
2023/10/21 00:52:32;;;;;;;10.82;5.50;;;;;;;10.07;100.00;98283.09;5092874;28;20048;-56
2023/10/21 00:55:03;;;;;;;9.38;5.65;;;;;;;10.08;100.00;98288.19;5093025;28;20052;-56
2023/10/21 00:57:31;;;;;;;12.48;5.65;;;;;;;10.09;100.00;98289.00;5092546;28;20044;-56
2023/10/21 00:59:59;;;;;;;12.20;6.35;;;;;;;10.09;100.00;98289.00;5092732;28;20075;-56
2023/10/21 01:02:30;;;;;;;11.13;6.10;;;;;;;10.14;100.00;98292.81;5092051;28;20032;-56
2023/10/21 01:04:59;;;;;;;9.25;5.43;;;;;;;10.12;100.00;98292.13;5086886;28;20044;-56
2023/10/21 01:07:27;;;;;;;12.15;6.22;;;;;;;10.12;100.00;98301.84;5090759;28;20487;-56
2023/10/21 01:09:55;;;;;;;11.85;6.32;;;;;;;10.10;100.00;98306.41;5091990;28;20048;-56
2023/10/21 01:12:25;;;;;;;11.40;5.80;;;;;;;10.11;100.00;98305.44;5092102;28;20097;-56
2023/10/21 01:14:53;;;;;;;10.45;5.85;;;;;;;10.16;100.00;98308.41;5092401;28;20059;-48
2023/10/21 01:17:22;;;;;;;10.63;5.40;;;;;;;10.14;100.00;98321.72;5092477;28;20048;-48
2023/10/21 01:19:50;;;;;;;9.35;5.30;;;;;;;10.11;100.00;98314.13;5088553;28;20056;-56
2023/10/21 01:22:22;;;;;;;9.63;5.90;;;;;;;10.09;100.00;98323.13;5088708;28;20044;-56
2023/10/21 01:24:51;;;;;;;9.82;5.70;;;;;;;10.16;100.00;98326.81;5091078;28;20044;-46
2023/10/21 01:27:20;;;;;;;9.77;5.57;;;;;;;10.19;100.00;98326.47;5090852;28;20098;-46
2023/10/21 01:29:48;;;;;;;12.25;5.63;;;;;;;10.18;100.00;98324.81;5092123;28;20382;-49
2023/10/21 01:32:16;;;;;;;9.73;5.57;;;;;;;10.21;100.00;98329.78;5092153;28;20059;-47
2023/10/21 01:34:44;;;;;;;10.05;5.70;;;;;;;10.21;100.00;98336.81;5091891;28;20052;-49
2023/10/21 01:37:12;;;;;;;9.70;5.78;;;;;;;10.17;100.00;98338.97;5092181;28;20077;-47
2023/10/21 01:39:40;;;;;;;11.10;5.47;;;;;;;10.19;100.00;98336.97;5092168;28;20407;-50
2023/10/21 01:42:10;;;;;;;13.32;6.25;;;;;;;10.21;100.00;98340.28;5091956;28;20407;-49
2023/10/21 01:44:38;;;;;;;13.32;6.30;;;;;;;10.20;100.00;98337.78;5091916;28;20137;-48
2023/10/21 01:47:09;;;;;;;11.13;5.72;;;;;;;10.25;100.00;98340.78;5091783;28;20123;-47
2023/10/21 01:49:38;;;;;;;10.40;5.68;;;;;;;10.25;100.00;98343.41;5091786;28;20050;-47
2023/10/21 01:52:06;;;;;;;12.63;6.30;;;;;;;10.25;100.00;98346.88;5091524;28;20040;-46
2023/10/21 01:54:36;;;;;;;13.55;6.25;;;;;;;10.31;100.00;98338.34;5091750;28;20036;-46
2023/10/21 01:57:05;;;;;;;13.85;6.97;;;;;;;10.34;100.00;98349.53;5091744;28;20048;-47
2023/10/21 01:59:39;;;;;;;11.85;6.28;;;;;;;10.40;100.00;98354.16;5091737;28;20055;-48
2023/10/21 02:02:07;;;;;;;11.07;6.30;;;;;;;10.43;100.00;98353.81;5091609;28;20055;-46
2023/10/21 02:04:36;;;;;;;13.60;6.55;;;;;;;10.41;100.00;98353.19;5091401;28;20059;-48
2023/10/21 02:07:04;;;;;;;12.23;5.95;;;;;;;10.43;100.00;98359.09;5090470;28;20055;-45
2023/10/21 02:09:33;;;;;;;12.07;6.38;;;;;;;10.43;100.00;98364.34;5088568;28;20040;-47
2023/10/21 02:12:01;;;;;;;13.63;6.65;;;;;;;10.39;100.00;98361.22;5089623;28;20044;-46
2023/10/21 02:14:30;;;;;;;12.48;7.50;;;;;;;10.40;100.00;98357.63;5091531;28;20402;-47
2023/10/21 02:17:00;;;;;;;11.27;6.30;;;;;;;10.39;100.00;98355.13;5091425;28;20040;-56
2023/10/21 02:19:28;;;;;;;11.30;6.32;;;;;;;10.39;100.00;98360.38;5091532;28;20586;-56
2023/10/21 02:21:56;;;;;;;12.70;6.15;;;;;;;10.37;100.00;98367.63;5091768;28;20512;-55
2023/10/21 02:24:24;;;;;;;13.75;6.38;;;;;;;10.32;100.00;98363.63;5091615;28;20047;-48
2023/10/21 02:26:52;;;;;;;11.38;6.70;;;;;;;10.36;100.00;98368.59;5091672;28;20079;-47
2023/10/21 02:29:21;;;;;;;11.55;6.50;;;;;;;10.31;100.00;98363.78;5091460;28;20040;-47
2023/10/21 02:31:49;;;;;;;10.63;6.82;;;;;;;10.31;100.00;98367.22;5091582;28;20048;-47
2023/10/21 02:34:19;;;;;;;10.05;6.07;;;;;;;10.26;100.00;98369.50;5092352;28;20058;-47
2023/10/21 02:36:49;;;;;;;10.40;6.30;;;;;;;10.26;100.00;98372.13;5095225;28;20050;-46
2023/10/21 02:39:17;;;;;;;13.65;6.78;;;;;;;10.28;100.00;98383.31;5095315;28;20055;-46
2023/10/21 02:41:47;;;;;;;15.75;7.35;;;;;;;10.29;100.00;98382.34;5095169;28;20044;-46
2023/10/21 02:44:15;;;;;;;14.18;7.28;;;;;;;10.34;100.00;98381.06;5093787;28;20058;-48
2023/10/21 02:46:43;;;;;;;13.48;6.78;;;;;;;10.30;100.00;98383.16;5095114;28;20052;-49
2023/10/21 02:49:14;;;;;;;14.45;7.30;;;;;;;10.29;100.00;98387.59;5095176;28;20515;-49
2023/10/21 02:51:43;;;;;;;14.00;7.97;;;;;;;10.31;100.00;98387.44;5094926;28;20056;-46
2023/10/21 02:54:12;;;;;;;11.38;7.38;;;;;;;10.28;100.00;98393.81;5094844;28;20036;-48
2023/10/21 02:56:41;;;;;;;12.57;7.50;;;;;;;10.27;100.00;98394.00;5094867;28;20058;-55
2023/10/21 02:59:10;;;;;;;12.15;7.28;;;;;;;10.29;100.00;98400.75;5093415;28;20044;-56
2023/10/21 03:01:38;;;;;;;12.43;7.85;;;;;;;10.27;100.00;98413.19;5091566;28;20063;-56
2023/10/21 03:04:07;;;;;;;11.52;7.45;;;;;;;10.28;100.00;98411.38;5093484;28;20055;-55
2023/10/21 03:06:36;;;;;;;13.30;7.70;;;;;;;10.28;100.00;98412.22;5094952;28;20454;-55
2023/10/21 03:09:07;;;;;;;11.18;7.70;;;;;;;10.27;100.00;98413.19;5094908;28;20056;-56
2023/10/21 03:11:35;;;;;;;13.52;7.70;;;;;;;10.34;100.00;98423.91;5094539;28;20123;-56
2023/10/21 03:14:04;;;;;;;11.32;7.40;;;;;;;10.36;100.00;98418.50;5094539;28;20052;-56
2023/10/21 03:16:32;;;;;;;13.57;8.18;;;;;;;10.42;100.00;98426.59;5094337;28;20052;-55
2023/10/21 03:19:00;;;;;;;12.57;7.55;;;;;;;10.37;100.00;98426.22;5094533;28;20048;-55
2023/10/21 03:21:29;;;;;;;13.23;7.03;;;;;;;10.35;100.00;98424.75;5094596;28;20048;-56
2023/10/21 03:23:57;;;;;;;11.45;7.03;;;;;;;10.36;100.00;98436.91;5094432;28;20054;-56
2023/10/21 03:26:26;;;;;;;12.77;7.78;;;;;;;10.35;100.00;98432.63;5094512;28;20064;-56
2023/10/21 03:28:54;;;;;;;12.85;7.70;;;;;;;10.42;100.00;98436.28;5094146;28;20387;-54
2023/10/21 03:31:23;;;;;;;11.93;7.60;;;;;;;10.43;100.00;98445.78;5094387;28;20226;-56
2023/10/21 03:33:51;;;;;;;12.98;7.95;;;;;;;10.47;100.00;98444.50;5094090;28;20044;-55
2023/10/21 03:36:20;;;;;;;15.00;7.75;;;;;;;10.45;100.00;98452.53;5094335;28;20491;-55
2023/10/21 03:38:49;;;;;;;12.55;8.02;;;;;;;10.49;100.00;98456.50;5094342;28;20048;-56
2023/10/21 03:41:17;;;;;;;12.35;7.63;;;;;;;10.48;100.00;98452.25;5092829;28;20074;-56
2023/10/21 03:43:47;;;;;;;11.05;7.50;;;;;;;10.52;100.00;98449.28;5093959;28;20052;-56
2023/10/21 03:46:15;;;;;;;12.23;7.38;;;;;;;10.59;100.00;98463.44;5093148;28;20131;-55
2023/10/21 03:48:43;;;;;;;12.82;7.22;;;;;;;10.63;100.00;98457.72;5094167;28;20048;-56
2023/10/21 03:51:13;;;;;;;14.98;7.65;;;;;;;10.63;100.00;98463.00;5093592;28;20076;-55
2023/10/21 03:53:43;;;;;;;13.75;8.07;;;;;;;10.61;100.00;98470.19;5093699;28;20055;-55
2023/10/21 03:56:11;;;;;;;12.40;7.50;;;;;;;10.59;100.00;98463.44;5093753;28;20055;-56
2023/10/21 03:58:41;;;;;;;17.23;8.55;;;;;;;10.57;100.00;98475.94;5093651;28;20043;-56
2023/10/21 04:01:13;;;;;;;13.07;7.47;;;;;;;10.59;100.00;98484.47;5093815;28;20074;-56
2023/10/21 04:03:41;;;;;;;11.13;7.15;;;;;;;10.57;100.00;98492.50;5093530;28;20059;-56
2023/10/21 04:06:11;;;;;;;11.90;6.82;;;;;;;10.57;100.00;98497.78;5092113;28;20047;-55
2023/10/21 04:08:40;;;;;;;11.43;7.30;;;;;;;10.55;100.00;98497.13;5091351;28;20056;-56
2023/10/21 04:11:08;;;;;;;10.63;7.32;;;;;;;10.55;100.00;98494.50;5089986;28;20048;-56
2023/10/21 04:13:36;;;;;;;10.18;6.55;;;;;;;10.54;100.00;98500.72;5092923;28;20051;-55
2023/10/21 04:16:05;;;;;;;13.38;6.90;;;;;;;10.51;100.00;98508.91;5093497;28;20124;-56
2023/10/21 04:18:35;;;;;;;10.77;6.38;;;;;;;10.44;100.00;98502.63;5093373;28;20131;-56
2023/10/21 04:21:03;;;;;;;12.50;6.57;;;;;;;10.50;100.00;98507.28;5093458;28;20494;-56
2023/10/21 04:23:31;;;;;;;11.77;7.10;;;;;;;10.53;100.00;98512.22;5093190;28;20039;-56
2023/10/21 04:25:59;;;;;;;11.13;6.78;;;;;;;10.48;100.00;98520.56;5093196;28;20052;-55
2023/10/21 04:28:28;;;;;;;11.65;6.15;;;;;;;10.47;100.00;98520.69;5093295;28;20079;-56
2023/10/21 04:30:56;;;;;;;11.13;6.35;;;;;;;10.46;100.00;98526.97;5093178;28;20062;-56
2023/10/21 04:33:24;;;;;;;10.88;6.43;;;;;;;10.45;100.00;98533.19;5093151;28;20075;-56
2023/10/21 04:35:54;;;;;;;11.10;6.50;;;;;;;10.45;100.00;98538.44;5090683;28;20105;-56
2023/10/21 04:38:22;;;;;;;9.15;6.15;;;;;;;10.45;100.00;98536.63;5089155;28;20101;-56
2023/10/21 04:40:50;;;;;;;10.05;6.35;;;;;;;10.44;100.00;98539.41;5090542;28;20055;-56
2023/10/21 04:43:18;;;;;;;9.38;6.45;;;;;;;10.45;100.00;98551.59;5089540;28;20040;-55
2023/10/21 04:45:49;;;;;;;10.35;6.30;;;;;;;10.43;100.00;98550.91;5090232;28;20056;-55
2023/10/21 04:48:17;;;;;;;10.88;6.35;;;;;;;10.44;100.00;98550.78;5092772;28;20052;-56
2023/10/21 04:50:48;;;;;;;11.43;6.07;;;;;;;10.41;100.00;98560.75;5091263;28;20052;-56
2023/10/21 04:53:18;;;;;;;9.55;6.20;;;;;;;10.36;100.00;98568.28;5092621;28;20126;-47
2023/10/21 04:55:46;;;;;;;11.02;6.28;;;;;;;10.30;100.00;98575.75;5092457;28;20044;-48
2023/10/21 04:58:14;;;;;;;9.93;6.07;;;;;;;10.28;100.00;98577.72;5091191;28;20075;-47
2023/10/21 05:00:42;;;;;;;9.32;5.38;;;;;;;10.26;100.00;98582.28;5092522;28;20475;-48
2023/10/21 05:03:11;;;;;;;10.00;6.07;;;;;;;10.26;100.00;98579.66;5092513;28;20032;-47
2023/10/21 05:05:39;;;;;;;9.93;6.18;;;;;;;10.23;100.00;98587.84;5092414;28;20408;-47
2023/10/21 05:08:10;;;;;;;11.93;5.97;;;;;;;10.19;100.00;98589.13;5088919;28;20087;-48
2023/10/21 05:10:40;;;;;;;10.85;5.90;;;;;;;10.17;100.00;98596.38;5089819;28;20043;-49
2023/10/21 05:13:08;;;;;;;10.10;6.22;;;;;;;10.17;100.00;98606.88;5092485;28;20044;-49
2023/10/21 05:15:38;;;;;;;12.82;6.40;;;;;;;10.15;100.00;98604.38;5092198;28;20047;-47
2023/10/21 05:18:06;;;;;;;10.52;6.47;;;;;;;10.17;100.00;98614.75;5092607;28;20487;-48
2023/10/21 05:20:38;;;;;;;12.20;7.05;;;;;;;10.15;100.00;98617.50;5091831;28;20048;-47
2023/10/21 05:23:06;;;;;;;11.32;6.60;;;;;;;10.14;100.00;98628.16;5088663;28;20105;-47
2023/10/21 05:25:34;;;;;;;12.23;7.28;;;;;;;10.19;100.00;98631.16;5090205;28;20047;-46
2023/10/21 05:28:04;;;;;;;12.52;7.20;;;;;;;10.17;100.00;98630.50;5089643;28;20051;-47
2023/10/21 05:30:33;;;;;;;11.50;7.15;;;;;;;10.17;100.00;98630.50;5088263;28;20078;-46
2023/10/21 05:33:01;;;;;;;10.93;6.43;;;;;;;10.15;100.00;98630.63;5091834;28;20127;-46
2023/10/21 05:35:30;;;;;;;10.23;6.70;;;;;;;10.11;100.00;98625.84;5092033;28;20520;-47
2023/10/21 05:37:58;;;;;;;12.00;6.50;;;;;;;10.06;100.00;98634.19;5092337;28;20048;-46
2023/10/21 05:40:26;;;;;;;10.98;6.32;;;;;;;10.03;100.00;98636.28;5090705;28;20047;-55
2023/10/21 05:42:54;;;;;;;11.70;6.25;;;;;;;9.99;100.00;98643.63;5091916;28;20403;-48
2023/10/21 05:45:24;;;;;;;10.05;6.18;;;;;;;10.00;100.00;98641.84;5091742;28;20048;-55
2023/10/21 05:47:53;;;;;;;12.63;6.03;;;;;;;10.01;100.00;98657.44;5091969;28;20048;-55
2023/10/21 05:50:24;;;;;;;13.52;6.28;;;;;;;10.01;100.00;98659.22;5091894;28;20044;-46
2023/10/21 05:52:53;;;;;;;13.63;6.10;;;;;;;9.96;100.00;98665.75;5091978;28;20051;-56
2023/10/21 05:55:21;;;;;;;9.38;6.07;;;;;;;9.96;100.00;98671.00;5091872;28;20565;-48
2023/10/21 05:57:49;;;;;;;10.45;5.65;;;;;;;9.95;100.00;98668.53;5091890;28;20048;-48
2023/10/21 06:00:18;;;;;;;10.95;5.90;;;;;;;9.87;100.00;98677.16;5091760;28;20457;-49
2023/10/21 06:02:48;;;;;;;8.55;5.32;;;;;;;9.82;100.00;98682.03;5091746;28;20040;-47
2023/10/21 06:05:16;;;;;;;9.27;5.10;;;;;;;9.79;100.00;98690.22;5091674;28;20123;-48
2023/10/21 06:07:44;;;;;;;9.90;5.90;;;;;;;9.79;100.00;98690.22;5091609;28;20059;-47
2023/10/21 06:10:13;;;;;;;10.45;5.60;;;;;;;9.75;100.00;98697.53;5094104;28;20392;-47
2023/10/21 06:12:43;;;;;;;10.95;5.80;;;;;;;9.76;100.00;98703.59;5095768;28;20101;-48
2023/10/21 06:15:14;;;;;;;9.52;5.47;;;;;;;9.74;100.00;98706.38;5095731;28;20058;-46
2023/10/21 06:17:42;;;;;;;11.50;5.88;;;;;;;9.73;100.00;98715.22;5095997;28;20797;-46
2023/10/21 06:20:13;;;;;;;10.70;5.68;;;;;;;9.71;100.00;98727.69;5095723;28;20384;-55
2023/10/21 06:22:41;;;;;;;11.07;6.10;;;;;;;9.74;100.00;98735.25;5095425;28;20048;-56
2023/10/21 06:25:10;;;;;;;10.50;5.63;;;;;;;9.73;100.00;98730.97;5091746;28;20044;-56
2023/10/21 06:27:38;;;;;;;11.15;6.43;;;;;;;9.70;100.00;98738.34;5091872;28;20113;-56
2023/10/21 06:30:08;;;;;;;9.68;5.80;;;;;;;9.66;100.00;98736.97;5095527;28;20732;-47
2023/10/21 06:32:36;;;;;;;11.55;6.13;;;;;;;9.64;100.00;98740.56;5095543;28;20048;-47
2023/10/21 06:35:05;;;;;;;12.88;6.15;;;;;;;9.66;100.00;98744.84;5094110;28;20052;-49
2023/10/21 06:37:34;;;;;;;11.73;6.72;;;;;;;9.66;100.00;98742.22;5095647;28;20402;-49
2023/10/21 06:40:04;;;;;;;10.88;7.18;;;;;;;9.66;100.00;98750.09;5095768;28;20151;-48
2023/10/21 06:42:32;;;;;;;9.55;7.10;;;;;;;9.70;100.00;98752.28;5095157;28;20056;-47
2023/10/21 06:45:02;;;;;;;10.57;6.93;;;;;;;9.69;100.00;98757.66;5095184;28;20452;-51
2023/10/21 06:47:30;;;;;;;11.38;6.30;;;;;;;9.71;100.00;98759.19;5095274;28;20482;-47
2023/10/21 06:50:02;;;;;;;16.60;7.43;;;;;;;9.78;100.00;98764.69;5093821;28;20052;-51
2023/10/21 06:52:31;;;;;;;14.75;8.38;;;;;;;9.88;100.00;98769.88;5094804;28;20139;-48
2023/10/21 06:55:00;;;;;;;12.93;8.02;;;;;;;9.95;100.00;98771.78;5095157;28;20036;-48
2023/10/21 06:57:29;;;;;;;16.40;8.50;;;;;;;9.95;100.00;98774.41;5095079;28;20044;-49
2023/10/21 06:59:57;;;;;;;13.93;7.93;;;;;;;10.03;100.00;98783.34;5095152;28;20032;-48
2023/10/21 07:02:25;;;;;;;13.52;7.68;;;;;;;10.08;100.00;98786.38;5094858;28;20044;-47
2023/10/21 07:04:55;;;;;;;16.70;8.50;;;;;;;10.16;100.00;98794.34;5094442;28;20085;-47
2023/10/21 07:07:24;;;;;;;16.15;8.57;;;;;;;10.26;100.00;98794.28;5094527;28;20510;-47
2023/10/21 07:09:52;;;;;;;17.92;9.55;;;;;;;10.29;100.00;98796.59;5092494;28;20085;-47
2023/10/21 07:12:21;;;;;;;17.13;10.07;;;;;;;10.40;100.00;98803.47;5091504;28;20051;-47
2023/10/21 07:14:50;;;;;;;17.40;9.05;;;;;;;10.51;100.00;98808.50;5093879;28;20037;-47
2023/10/21 07:17:19;;;;;;;15.13;8.32;;;;;;;10.60;100.00;98809.44;5094685;28;20482;-50
2023/10/21 07:19:47;;;;;;;12.55;7.43;;;;;;;10.68;100.00;98812.13;5094909;28;20086;-49
2023/10/21 07:22:15;;;;;;;14.40;7.97;;;;;;;10.77;100.00;98815.66;5093158;28;20047;-46
2023/10/21 07:24:43;;;;;;;14.20;7.78;;;;;;;10.82;100.00;98826.53;5094542;28;20072;-50
2023/10/21 07:27:11;;;;;;;18.27;7.75;;;;;;;10.92;100.00;98827.31;5094466;28;20041;-52
2023/10/21 07:29:41;;;;;;;15.15;7.85;;;;;;;10.96;100.00;98833.91;5094417;28;20040;-50
2023/10/21 07:32:09;;;;;;;14.80;7.70;;;;;;;11.04;100.00;98840.22;5094478;28;20064;-50
2023/10/21 07:34:37;;;;;;;13.55;7.57;;;;;;;11.13;100.00;98840.13;5093015;28;20043;-48
2023/10/21 07:37:05;;;;;;;13.40;7.20;;;;;;;11.31;100.00;98853.25;5094080;28;20043;-49
2023/10/21 07:39:34;;;;;;;13.48;7.57;;;;;;;11.28;100.00;98850.94;5093997;28;20123;-50
2023/10/21 07:42:02;;;;;;;15.05;7.07;;;;;;;11.38;100.00;98855.28;5092686;28;20063;-49
2023/10/21 07:44:31;;;;;;;14.93;7.13;;;;;;;11.47;100.00;98862.25;5094033;28;20048;-56
2023/10/21 07:47:00;;;;;;;14.93;6.68;;;;;;;11.50;100.00;98861.94;5094247;28;20044;-56
2023/10/21 07:49:28;;;;;;;12.35;7.07;;;;;;;11.50;100.00;98861.94;5093950;28;20040;-57
2023/10/21 07:51:56;;;;;;;15.40;6.70;;;;;;;11.55;100.00;98859.69;5091126;28;20056;-51
2023/10/21 07:54:27;;;;;;;12.35;7.28;;;;;;;11.65;100.00;98870.09;5090674;28;20461;-57
2023/10/21 07:56:55;;;;;;;11.15;5.63;;;;;;;11.63;100.00;98872.06;5093834;28;20062;-57
2023/10/21 07:59:23;;;;;;;13.45;6.45;;;;;;;11.75;100.00;98875.25;5093900;28;20540;-50
2023/10/21 08:01:52;;;;;;;12.43;6.45;;;;;;;11.73;100.00;98877.25;5094026;28;20070;-48
2023/10/21 08:04:21;;;;;;;11.77;6.22;;;;;;;11.82;100.00;98887.66;5093680;28;20048;-49
2023/10/21 08:06:49;;;;;;;14.57;6.47;;;;;;;11.86;100.00;98888.16;5093414;28;20044;-48
2023/10/21 08:09:19;;;;;;;12.98;6.60;;;;;;;11.88;100.00;98901.19;5093602;28;20510;-56
2023/10/21 08:11:48;;;;;;;13.93;5.90;;;;;;;11.90;100.00;98889.53;5093684;28;20072;-56
2023/10/21 08:14:16;;;;;;;10.45;6.15;;;;;;;11.96;100.00;98901.28;5093587;28;20051;-56
2023/10/21 08:16:46;;;;;;;12.88;5.93;;;;;;;11.96;100.00;98906.53;5093619;28;20177;-56
2023/10/21 08:19:15;;;;;;;10.10;5.07;;;;;;;12.02;100.00;98918.25;5093594;28;20392;-57
2023/10/21 08:21:45;;;;;;;7.90;3.75;;;;;;;11.97;100.00;98932.72;5093242;28;20051;-57
2023/10/21 08:24:13;;;;;;;5.78;2.80;;;;;;;11.96;100.00;98938.16;5093412;28;20087;-57
2023/10/21 08:26:41;;;;;;;5.90;2.50;;;;;;;11.91;100.00;98938.56;5091822;28;20043;-57
2023/10/21 08:29:10;;;;;;;5.90;2.10;;;;;;;11.91;100.00;98951.75;5093377;28;20745;-56
2023/10/21 08:31:38;;;;;;;5.55;1.80;;;;;;;11.88;100.00;98949.41;5092900;28;20077;-56
2023/10/21 08:34:12;;;;;;;4.90;1.80;;;;;;;12.00;100.00;98950.03;5093175;28;20484;-52
2023/10/21 08:36:41;;;;;;;5.47;2.07;;;;;;;12.12;100.00;98954.06;5093087;28;20093;-52
2023/10/21 08:39:12;;;;;;;4.88;2.10;;;;;;;12.39;100.00;98961.94;5093024;28;20042;-56
2023/10/21 08:41:41;;;;;;;5.72;1.98;;;;;;;12.56;100.00;98966.28;5093008;28;20452;-56
2023/10/21 08:44:09;;;;;;;6.60;2.10;;;;;;;12.75;100.00;98970.50;5093092;28;20036;-56
2023/10/21 08:46:38;;;;;;;3.17;1.50;;;;;;;12.81;100.00;98971.66;5092982;28;20055;-56
2023/10/21 08:49:08;;;;;;;4.88;2.03;;;;;;;12.84;100.00;98979.25;5092716;28;20052;-56
2023/10/21 08:51:36;;;;;;;3.22;1.27;;;;;;;12.89;100.00;98979.59;5092613;28;20135;-56
2023/10/21 08:54:05;;;;;;;2.65;1.10;;;;;;;12.84;100.00;98981.88;5090433;28;20495;-56
2023/10/21 08:56:37;;;;;;;3.95;1.55;;;;;;;13.02;100.00;98987.06;5089409;28;20108;-55
2023/10/21 08:59:05;;;;;;;2.47;1.30;;;;;;;13.19;100.00;98999.28;5088676;28;20510;-56
2023/10/21 09:01:36;;;;;;;4.05;1.05;;;;;;;13.29;100.00;99015.00;5092333;28;20048;-55
2023/10/21 09:04:05;;;;;;;2.42;1.00;;;;;;;13.39;100.00;99011.41;5087336;28;20105;-55
2023/10/21 09:06:54;;;;;;;3.03;1.20;;;;;;;13.40;100.00;99013.88;5091050;28;20043;-55
2023/10/21 09:09:26;;;;;;;4.55;1.20;;;;;;;13.45;100.00;99018.69;5092466;28;20123;-56
2023/10/21 09:12:11;;;;;;;2.80;1.10;;;;;;;13.53;100.00;99029.25;5092607;28;20487;-56
2023/10/21 09:15:00;;;;;;;4.97;1.17;;;;;;;13.58;100.00;99026.97;5092363;28;20426;-54
2023/10/21 09:17:36;;;;;;;4.32;1.27;;;;;;;13.73;100.00;99023.66;5087846;28;20499;-56
2023/10/21 09:20:09;;;;;;;3.88;1.52;;;;;;;13.81;100.00;99034.22;5092308;28;20047;-55
2023/10/21 09:22:37;;;;;;;;;;;;;;;14.04;100.00;99042.31;5092457;28;20490;-54
2023/10/21 09:25:09;;;;;;;1.92;0.88;;;;;;;14.07;100.00;99033.22;5091752;28;19924;-56
2023/10/21 09:27:39;;;;;;;4.10;1.33;;;;;;;14.26;100.00;99039.97;5092102;28;20040;-56
2023/10/21 09:30:08;;;;;;;1.55;0.80;;;;;;;14.44;100.00;99048.56;5092252;28;20398;-54
2023/10/21 09:32:37;;;;;;;1.48;0.68;;;;;;;14.67;100.00;99056.63;5092372;28;20399;-55
2023/10/21 09:35:14;;;;;;;3.88;0.90;;;;;;;14.69;100.00;99062.56;5092233;28;20413;-46
2023/10/21 09:37:42;;;;;;;2.05;0.60;;;;;;;14.82;100.00;99062.03;5092466;28;20043;-53
2023/10/21 09:40:12;;;;;;;3.85;0.70;;;;;;;14.91;100.00;99073.41;5092111;28;20062;-46
2023/10/21 09:42:42;;;;;;;2.17;0.60;;;;;;;15.17;100.00;99072.31;5090708;28;20066;-55
2023/10/21 09:45:13;;;;;;;2.38;1.00;;;;;;;15.16;100.00;99075.94;5091660;28;20118;-46
2023/10/21 09:47:43;;;;;;;3.80;0.68;;;;;;;15.08;100.00;99082.13;5091904;28;20499;-46
2023/10/21 09:50:13;;;;;;;3.15;0.82;;;;;;;15.03;100.00;99085.25;5091966;28;20055;-55
2023/10/21 09:52:45;;;;;;;3.45;0.95;;;;;;;14.89;100.00;99091.28;5091727;28;20063;-55
2023/10/21 09:55:24;;;;;;;2.25;0.70;;;;;;;15.08;100.00;99097.16;5091795;28;20047;-55
2023/10/21 09:57:57;;;;;;;2.63;0.77;;;;;;;14.99;100.00;99094.56;5090785;28;20039;-55
2023/10/21 10:00:26;;;;;;;2.60;0.70;;;;;;;14.99;100.00;99099.03;5088445;28;20491;-54
2023/10/21 10:02:59;;;;;;;2.08;0.70;;;;;;;14.87;100.00;99103.84;5090643;28;20048;-55
2023/10/21 10:05:27;;;;;;;;;;;;;;;14.86;100.00;99102.19;5092131;28;20411;-45
2023/10/21 10:08:00;;;;;;;2.15;0.70;;;;;;;14.98;100.00;99103.50;5091647;28;20016;-55
2023/10/21 10:10:30;;;;;;;2.80;0.70;;;;;;;14.99;100.00;99104.31;5091759;28;20051;-54
2023/10/21 10:13:02;;;;;;;4.10;0.70;;;;;;;15.14;100.00;99109.72;5091540;28;20046;-55
2023/10/21 10:15:33;;;;;;;2.58;0.70;;;;;;;15.35;100.00;99114.41;5091733;28;20050;-55
2023/10/21 10:18:04;;;;;;;5.18;0.80;;;;;;;15.36;100.00;99119.53;5091650;28;20051;-55
2023/10/21 10:20:32;;;;;;;6.30;0.90;;;;;;;15.42;100.00;99114.56;5091679;28;20373;-55
2023/10/21 10:23:03;;;;;;;2.67;0.75;;;;;;;15.51;100.00;99124.13;5091650;28;20062;-47
2023/10/21 10:25:33;;;;;;;2.05;0.57;;;;;;;15.83;100.00;99132.91;5091547;28;20071;-47
2023/10/21 10:28:09;;;;;;;2.58;0.80;;;;;;;16.04;100.00;99133.06;5091493;28;20040;-46
2023/10/21 10:30:43;;;;;;;2.90;0.70;;;;;;;16.04;100.00;99146.34;5091609;28;20510;-56
2023/10/21 10:33:17;;;;;;;3.17;0.80;;;;;;;16.08;100.00;99136.22;5091994;28;20123;-47
2023/10/21 10:35:48;;;;;;;5.93;1.17;;;;;;;16.10;100.00;99142.19;5090211;28;20044;-46
2023/10/21 10:38:20;;;;;;;4.03;0.90;;;;;;;16.45;100.00;99137.22;5089932;28;20041;-48
2023/10/21 10:40:50;;;;;;;1.85;0.90;;;;;;;16.50;100.00;99150.78;5087386;28;20685;-45
2023/10/21 10:43:20;;;;;;;4.50;1.00;;;;;;;16.34;100.00;99145.63;5091100;28;20423;-47
2023/10/21 10:45:48;;;;;;;5.38;0.98;;;;;;;16.19;100.00;99156.19;5091445;28;20123;-45
2023/10/21 10:48:18;;;;;;;5.00;0.90;;;;;;;16.38;100.00;99157.53;5091548;28;20067;-56
2023/10/21 10:50:47;;;;;;;2.42;0.73;;;;;;;16.31;100.00;99153.94;5091271;28;20051;-55
2023/10/21 10:53:17;;;;;;;2.55;0.80;;;;;;;16.60;100.00;99169.09;5091369;28;20499;-55
2023/10/21 10:55:49;;;;;;;7.57;1.00;;;;;;;16.69;100.00;99167.22;5092887;28;20074;-45
2023/10/21 10:58:19;;;;;;;4.60;0.85;;;;;;;16.43;100.00;99172.91;5094952;28;20105;-46
2023/10/21 11:00:48;;;;;;;6.85;0.80;;;;;;;16.66;100.00;99172.88;5094405;28;20109;-48
2023/10/21 11:03:23;;;;;;;4.30;0.87;;;;;;;16.99;100.00;99177.91;5094406;28;20399;-47
2023/10/21 11:05:53;;;;;;;5.82;0.90;;;;;;;17.77;100.00;99188.09;5094638;28;20827;-46
2023/10/21 11:08:22;;;;;;;3.58;0.80;;;;;;;17.94;100.00;99186.88;5094934;28;20040;-47
2023/10/21 11:10:53;;;;;;;3.70;0.63;;;;;;;18.42;100.00;99178.34;5095013;28;20415;-48
2023/10/21 11:13:22;;;;;;;3.30;0.90;;;;;;;18.75;100.00;99172.47;5094926;28;20052;-46
2023/10/21 11:15:54;;;;;;;4.82;1.17;;;;;;;18.27;100.00;99183.75;5094959;28;20522;-47
2023/10/21 11:18:22;;;;;;;4.50;0.60;;;;;;;18.00;100.00;99191.47;5092008;28;20491;-46
2023/10/21 11:20:51;;;;;;;3.13;0.90;;;;;;;18.59;100.00;99187.69;5089942;28;20086;-56
2023/10/21 11:23:21;;;;;;;4.32;0.90;;;;;;;18.54;100.00;99192.78;5094677;28;20494;-56
2023/10/21 11:25:52;;;;;;;2.95;0.82;;;;;;;18.37;100.00;99188.75;5094598;28;20047;-56
2023/10/21 11:28:22;;;;;;;4.30;0.85;;;;;;;18.48;100.00;99190.06;5094409;28;20040;-56
2023/10/21 11:30:50;;;;;;;6.30;0.82;;;;;;;18.55;100.00;99190.94;5094503;28;20059;-56